sensor_id;sensor_type;location;lat;lon;timestamp;pressure;altitude;pressure_sealevel;temperature;humidity
69766;BME280;57039;48.014;21.384;2022-11-25T00:00:38;100677.63;;;3.07;100.00
69766;BME280;57039;48.014;21.384;2022-11-25T00:01:42;100672.53;;;3.04;100.00
69766;BME280;57039;48.014;21.384;2022-11-25T00:02:44;100681.97;;;3.06;100.00
69766;BME280;57039;48.014;21.384;2022-11-25T00:03:48;100681.06;;;3.07;100.00
69766;BME280;57039;48.014;21.384;2022-11-25T00:04:51;100687.94;;;3.10;100.00
69766;BME280;57039;48.014;21.384;2022-11-25T00:05:55;100687.94;;;3.10;100.00
69766;BME280;57039;48.014;21.384;2022-11-25T00:06:58;100684.44;;;3.11;100.00
69766;BME280;57039;48.014;21.384;2022-11-25T00:08:01;100686.19;;;3.12;100.00
69766;BME280;57039;48.014;21.384;2022-11-25T00:09:09;100687.87;;;3.13;100.00
69766;BME280;57039;48.014;21.384;2022-11-25T00:10:12;100694.75;;;3.14;100.00
69766;BME280;57039;48.014;21.384;2022-11-25T00:11:16;100695.66;;;3.13;100.00
69766;BME280;57039;48.014;21.384;2022-11-25T00:12:20;100693.03;;;3.14;100.00
69766;BME280;57039;48.014;21.384;2022-11-25T00:13:23;100690.41;;;3.16;100.00
69766;BME280;57039;48.014;21.384;2022-11-25T00:14:25;100693.03;;;3.14;100.00
69766;BME280;57039;48.014;21.384;2022-11-25T00:15:29;100698.25;;;3.13;100.00
69766;BME280;57039;48.014;21.384;2022-11-25T00:16:32;100693.94;;;3.12;100.00
69766;BME280;57039;48.014;21.384;2022-11-25T00:17:36;100699.06;;;3.15;100.00
69766;BME280;57039;48.014;21.384;2022-11-25T00:18:43;100700.88;;;3.11;100.00
69766;BME280;57039;48.014;21.384;2022-11-25T00:19:47;100698.25;;;3.13;100.00
69766;BME280;57039;48.014;21.384;2022-11-25T00:20:50;100706.00;;;3.14;100.00
69766;BME280;57039;48.014;21.384;2022-11-25T00:21:53;100706.84;;;3.15;100.00
69766;BME280;57039;48.014;21.384;2022-11-25T00:22:55;100698.22;;;3.14;100.00
69766;BME280;57039;48.014;21.384;2022-11-25T00:24:02;100706.78;;;3.16;100.00
69766;BME280;57039;48.014;21.384;2022-11-25T00:25:05;100699.88;;;3.17;100.00
69766;BME280;57039;48.014;21.384;2022-11-25T00:26:15;100701.66;;;3.15;100.00
69766;BME280;57039;48.014;21.384;2022-11-25T00:27:18;100696.53;;;3.12;100.00
69766;BME280;57039;48.014;21.384;2022-11-25T00:28:21;100704.31;;;3.12;100.00
69766;BME280;57039;48.014;21.384;2022-11-25T00:29:24;100702.59;;;3.11;100.00
69766;BME280;57039;48.014;21.384;2022-11-25T00:30:26;100700.88;;;3.11;100.00
69766;BME280;57039;48.014;21.384;2022-11-25T00:31:32;100702.53;;;3.14;100.00
69766;BME280;57039;48.014;21.384;2022-11-25T00:32:34;100707.72;;;3.14;100.00
69766;BME280;57039;48.014;21.384;2022-11-25T00:33:38;100713.78;;;3.14;100.00
69766;BME280;57039;48.014;21.384;2022-11-25T00:34:41;100713.72;;;3.16;100.00
69766;BME280;57039;48.014;21.384;2022-11-25T00:35:44;100712.09;;;3.12;100.00
69766;BME280;57039;48.014;21.384;2022-11-25T00:36:47;100713.78;;;3.14;100.00
69766;BME280;57039;48.014;21.384;2022-11-25T00:37:50;100724.13;;;3.14;100.00
69766;BME280;57039;48.014;21.384;2022-11-25T00:38:55;100719.88;;;3.12;100.00
69766;BME280;57039;48.014;21.384;2022-11-25T00:39:58;100718.97;;;3.13;100.00
69766;BME280;57039;48.014;21.384;2022-11-25T00:41:01;100716.44;;;3.11;100.00
69766;BME280;57039;48.014;21.384;2022-11-25T00:42:22;100719.81;;;3.13;100.00
69766;BME280;57039;48.014;21.384;2022-11-25T00:43:43;100718.13;;;3.12;100.00
69766;BME280;57039;48.014;21.384;2022-11-25T00:45:06;100722.47;;;3.12;100.00
69766;BME280;57039;48.014;21.384;2022-11-25T00:46:09;100722.47;;;3.12;100.00
69766;BME280;57039;48.014;21.384;2022-11-25T00:47:13;100719.03;;;3.11;100.00
69766;BME280;57039;48.014;21.384;2022-11-25T00:48:18;100717.34;;;3.07;100.00
69766;BME280;57039;48.014;21.384;2022-11-25T00:49:21;100726.81;;;3.11;100.00
69766;BME280;57039;48.014;21.384;2022-11-25T00:50:24;100731.09;;;3.11;100.00
69766;BME280;57039;48.014;21.384;2022-11-25T00:51:26;100730.25;;;3.12;100.00
69766;BME280;57039;48.014;21.384;2022-11-25T00:52:29;100729.38;;;3.11;100.00
69766;BME280;57039;48.014;21.384;2022-11-25T00:53:32;100725.06;;;3.10;100.00
69766;BME280;57039;48.014;21.384;2022-11-25T00:54:35;100728.50;;;3.11;100.00
69766;BME280;57039;48.014;21.384;2022-11-25T00:55:38;100734.53;;;3.13;100.00
69766;BME280;57039;48.014;21.384;2022-11-25T00:57:01;100738.00;;;3.12;100.00
69766;BME280;57039;48.014;21.384;2022-11-25T00:58:04;100739.75;;;3.11;100.00
69766;BME280;57039;48.014;21.384;2022-11-25T00:59:07;100736.34;;;3.09;100.00
69766;BME280;57039;48.014;21.384;2022-11-25T01:00:13;100732.84;;;3.12;100.00
69766;BME280;57039;48.014;21.384;2022-11-25T01:01:16;100735.44;;;3.12;100.00
69766;BME280;57039;48.014;21.384;2022-11-25T01:02:19;100712.28;;;3.03;100.00
69766;BME280;57039;48.014;21.384;2022-11-25T01:03:22;100734.47;;;3.16;100.00
69766;BME280;57039;48.014;21.384;2022-11-25T01:04:26;100732.75;;;3.15;100.00
69766;BME280;57039;48.014;21.384;2022-11-25T01:05:29;100736.22;;;3.15;100.00
69766;BME280;57039;48.014;21.384;2022-11-25T01:06:33;100736.22;;;3.14;100.00
69766;BME280;57039;48.014;21.384;2022-11-25T01:07:36;100737.94;;;3.15;100.00
69766;BME280;57039;48.014;21.384;2022-11-25T01:08:40;100728.50;;;3.12;100.00
69766;BME280;57039;48.014;21.384;2022-11-25T01:09:43;100732.00;;;3.10;100.00
69766;BME280;57039;48.014;21.384;2022-11-25T01:10:48;100737.16;;;3.11;100.00
69766;BME280;57039;48.014;21.384;2022-11-25T01:11:51;100728.50;;;3.11;100.00
69766;BME280;57039;48.014;21.384;2022-11-25T01:12:54;100727.78;;;3.04;100.00
69766;BME280;57039;48.014;21.384;2022-11-25T01:13:58;100737.22;;;3.08;100.00
69766;BME280;57039;48.014;21.384;2022-11-25T01:15:03;100736.34;;;3.08;100.00
69766;BME280;57039;48.014;21.384;2022-11-25T01:16:12;100738.06;;;3.09;100.00
69766;BME280;57039;48.014;21.384;2022-11-25T01:17:15;100740.66;;;3.09;100.00
69766;BME280;57039;48.014;21.384;2022-11-25T01:18:18;100733.69;;;3.11;100.00
69766;BME280;57039;48.014;21.384;2022-11-25T01:19:21;100737.19;;;3.10;100.00
69766;BME280;57039;48.014;21.384;2022-11-25T01:20:24;100733.81;;;3.05;100.00
69766;BME280;57039;48.014;21.384;2022-11-25T01:21:29;100734.66;;;3.07;100.00
69766;BME280;57039;48.014;21.384;2022-11-25T01:22:32;100745.03;;;3.07;100.00
69766;BME280;57039;48.014;21.384;2022-11-25T01:23:38;100746.78;;;3.05;100.00
69766;BME280;57039;48.014;21.384;2022-11-25T01:24:42;100742.50;;;3.04;100.00
69766;BME280;57039;48.014;21.384;2022-11-25T01:25:44;100746.84;;;3.02;100.00
69766;BME280;57039;48.014;21.384;2022-11-25T01:26:47;100740.03;;;2.96;100.00
69766;BME280;57039;48.014;21.384;2022-11-25T01:27:50;100737.50;;;2.94;100.00
69766;BME280;57039;48.014;21.384;2022-11-25T01:28:57;100747.81;;;2.96;100.00
69766;BME280;57039;48.014;21.384;2022-11-25T01:30:01;100745.28;;;2.94;100.00
69766;BME280;57039;48.014;21.384;2022-11-25T01:31:13;100747.94;;;2.91;100.00
69766;BME280;57039;48.014;21.384;2022-11-25T01:32:17;100744.50;;;2.91;100.00
69766;BME280;57039;48.014;21.384;2022-11-25T01:33:20;100748.87;;;2.87;100.00
69766;BME280;57039;48.014;21.384;2022-11-25T01:34:25;100752.41;;;2.83;100.00
69766;BME280;57039;48.014;21.384;2022-11-25T01:35:35;100743.03;;;2.76;100.00
69766;BME280;57039;48.014;21.384;2022-11-25T01:36:39;100756.75;;;2.81;100.00
69766;BME280;57039;48.014;21.384;2022-11-25T01:37:43;100754.16;;;2.81;100.00
69766;BME280;57039;48.014;21.384;2022-11-25T01:38:50;100755.03;;;2.82;100.00
69766;BME280;57039;48.014;21.384;2022-11-25T01:39:53;100753.28;;;2.82;100.00
69766;BME280;57039;48.014;21.384;2022-11-25T01:40:56;100757.62;;;2.82;100.00
69766;BME280;57039;48.014;21.384;2022-11-25T01:42:00;100764.50;;;2.81;100.00
69766;BME280;57039;48.014;21.384;2022-11-25T01:43:02;100760.22;;;2.80;100.00
69766;BME280;57039;48.014;21.384;2022-11-25T01:44:07;100763.72;;;2.78;100.00
69766;BME280;57039;48.014;21.384;2022-11-25T01:48:13;100763.66;;;2.81;100.00
69766;BME280;57039;48.014;21.384;2022-11-25T01:49:33;100756.16;;;2.67;100.00
69766;BME280;57039;48.014;21.384;2022-11-25T01:50:38;100765.56;;;2.72;100.00
69766;BME280;57039;48.014;21.384;2022-11-25T01:52:18;100769.00;;;2.73;100.00
69766;BME280;57039;48.014;21.384;2022-11-25T01:53:24;100774.12;;;2.76;100.00
69766;BME280;57039;48.014;21.384;2022-11-25T01:54:29;100763.06;;;2.68;100.00
69766;BME280;57039;48.014;21.384;2022-11-25T01:55:34;100774.19;;;2.73;100.00
69766;BME280;57039;48.014;21.384;2022-11-25T01:56:52;100769.94;;;2.69;100.00
69766;BME280;57039;48.014;21.384;2022-11-25T01:58:07;100771.72;;;2.67;100.00
69766;BME280;57039;48.014;21.384;2022-11-25T01:59:13;100766.53;;;2.67;100.00
69766;BME280;57039;48.014;21.384;2022-11-25T02:00:16;100771.72;;;2.67;100.00
69766;BME280;57039;48.014;21.384;2022-11-25T02:01:19;100775.09;;;2.69;100.00
69766;BME280;57039;48.014;21.384;2022-11-25T02:02:23;100769.94;;;2.69;100.00
69766;BME280;57039;48.014;21.384;2022-11-25T02:03:41;100771.78;;;2.64;100.00
69766;BME280;57039;48.014;21.384;2022-11-25T02:04:47;100772.63;;;2.63;100.00
69766;BME280;57039;48.014;21.384;2022-11-25T02:06:09;100770.88;;;2.65;100.00
69766;BME280;57039;48.014;21.384;2022-11-25T02:07:30;100772.56;;;2.67;100.00
69766;BME280;57039;48.014;21.384;2022-11-25T02:08:35;100765.63;;;2.68;100.00
69766;BME280;57039;48.014;21.384;2022-11-25T02:09:40;100763.91;;;2.68;100.00
69766;BME280;57039;48.014;21.384;2022-11-25T02:10:44;100769.94;;;2.69;100.00
69766;BME280;57039;48.014;21.384;2022-11-25T02:11:47;100761.41;;;2.64;100.00
69766;BME280;57039;48.014;21.384;2022-11-25T02:12:52;100771.66;;;2.70;100.00
69766;BME280;57039;48.014;21.384;2022-11-25T02:13:56;100772.53;;;2.69;100.00
69766;BME280;57039;48.014;21.384;2022-11-25T02:15:00;100761.38;;;2.65;100.00
69766;BME280;57039;48.014;21.384;2022-11-25T02:16:04;100769.00;;;2.73;100.00
69766;BME280;57039;48.014;21.384;2022-11-25T02:17:07;100775.06;;;2.72;100.00
69766;BME280;57039;48.014;21.384;2022-11-25T02:18:10;100775.09;;;2.70;100.00
69766;BME280;57039;48.014;21.384;2022-11-25T02:19:23;100774.16;;;2.74;100.00
69766;BME280;57039;48.014;21.384;2022-11-25T02:20:26;100771.59;;;2.73;100.00
69766;BME280;57039;48.014;21.384;2022-11-25T02:21:39;100769.94;;;2.69;100.00
69766;BME280;57039;48.014;21.384;2022-11-25T02:24:30;100770.81;;;2.69;100.00
69766;BME280;57039;48.014;21.384;2022-11-25T02:25:38;100781.19;;;2.68;100.00
69766;BME280;57039;48.014;21.384;2022-11-25T02:26:43;100772.53;;;2.69;100.00
69766;BME280;57039;48.014;21.384;2022-11-25T02:27:49;100783.78;;;2.68;100.00
69766;BME280;57039;48.014;21.384;2022-11-25T02:28:54;100777.75;;;2.66;100.00
69766;BME280;57039;48.014;21.384;2022-11-25T02:29:57;100779.53;;;2.64;100.00
69766;BME280;57039;48.014;21.384;2022-11-25T02:31:00;100783.81;;;2.65;100.00
69766;BME280;57039;48.014;21.384;2022-11-25T02:32:03;100776.06;;;2.65;100.00
69766;BME280;57039;48.014;21.384;2022-11-25T02:33:06;100782.06;;;2.67;100.00
69766;BME280;57039;48.014;21.384;2022-11-25T02:34:09;100769.19;;;2.62;100.00
69766;BME280;57039;48.014;21.384;2022-11-25T02:36:29;100778.59;;;2.68;100.00
69766;BME280;57039;48.014;21.384;2022-11-25T02:37:33;100776.91;;;2.67;100.00
69766;BME280;57039;48.014;21.384;2022-11-25T02:38:56;100774.31;;;2.65;100.00
69766;BME280;57039;48.014;21.384;2022-11-25T02:39:59;100776.97;;;2.62;100.00
69766;BME280;57039;48.014;21.384;2022-11-25T02:41:09;100777.81;;;2.63;100.00
69766;BME280;57039;48.014;21.384;2022-11-25T02:42:14;100783.88;;;2.63;100.00
69766;BME280;57039;48.014;21.384;2022-11-25T02:43:20;100782.13;;;2.62;100.00
69766;BME280;57039;48.014;21.384;2022-11-25T02:44:26;100786.47;;;2.62;100.00
69766;BME280;57039;48.014;21.384;2022-11-25T02:45:34;100785.59;;;2.63;100.00
69766;BME280;57039;48.014;21.384;2022-11-25T02:46:40;100793.41;;;2.61;100.00
69766;BME280;57039;48.014;21.384;2022-11-25T02:47:43;100793.41;;;2.61;100.00
69766;BME280;57039;48.014;21.384;2022-11-25T02:48:46;100797.72;;;2.61;100.00
69766;BME280;57039;48.014;21.384;2022-11-25T02:50:12;100793.41;;;2.61;100.00
69766;BME280;57039;48.014;21.384;2022-11-25T02:51:17;100795.09;;;2.62;100.00
69766;BME280;57039;48.014;21.384;2022-11-25T02:52:21;100804.56;;;2.65;100.00
69766;BME280;57039;48.014;21.384;2022-11-25T02:53:24;100803.75;;;2.61;100.00
69766;BME280;57039;48.014;21.384;2022-11-25T02:54:26;100803.06;;;2.51;100.00
69766;BME280;57039;48.014;21.384;2022-11-25T02:55:31;100809.00;;;2.58;100.00
69766;BME280;57039;48.014;21.384;2022-11-25T02:56:34;100810.72;;;2.58;100.00
69766;BME280;57039;48.014;21.384;2022-11-25T02:57:37;100809.00;;;2.57;100.00
69766;BME280;57039;48.014;21.384;2022-11-25T02:58:41;100813.31;;;2.58;100.00
69766;BME280;57039;48.014;21.384;2022-11-25T02:59:44;100814.22;;;2.55;100.00
69766;BME280;57039;48.014;21.384;2022-11-25T03:00:48;100819.44;;;2.52;100.00
69766;BME280;57039;48.014;21.384;2022-11-25T03:01:51;100815.97;;;2.53;100.00
69766;BME280;57039;48.014;21.384;2022-11-25T03:02:54;100822.78;;;2.57;100.00
69766;BME280;57039;48.014;21.384;2022-11-25T03:03:57;100815.06;;;2.56;100.00
69766;BME280;57039;48.014;21.384;2022-11-25T03:05:01;100819.41;;;2.55;100.00
69766;BME280;57039;48.014;21.384;2022-11-25T03:06:04;100818.50;;;2.58;100.00
69766;BME280;57039;48.014;21.384;2022-11-25T03:07:07;100819.31;;;2.60;100.00
69766;BME280;57039;48.014;21.384;2022-11-25T03:08:10;100821.88;;;2.61;100.00
69766;BME280;57039;48.014;21.384;2022-11-25T03:09:13;100815.81;;;2.62;100.00
69766;BME280;57039;48.014;21.384;2022-11-25T03:10:16;100826.16;;;2.62;100.00
69766;BME280;57039;48.014;21.384;2022-11-25T03:11:20;100814.94;;;2.63;100.00
69766;BME280;57039;48.014;21.384;2022-11-25T03:12:22;100817.50;;;2.66;100.00
69766;BME280;57039;48.014;21.384;2022-11-25T03:14:55;100815.75;;;2.67;100.00
69766;BME280;57039;48.014;21.384;2022-11-25T03:15:58;100809.69;;;2.68;100.00
69766;BME280;57039;48.014;21.384;2022-11-25T03:17:01;100814.84;;;2.68;100.00
69766;BME280;57039;48.014;21.384;2022-11-25T03:18:05;100822.69;;;2.65;100.00
69766;BME280;57039;48.014;21.384;2022-11-25T03:19:08;100822.69;;;2.65;100.00
69766;BME280;57039;48.014;21.384;2022-11-25T03:20:12;100821.88;;;2.61;100.00
69766;BME280;57039;48.014;21.384;2022-11-25T03:21:16;100821.03;;;2.61;100.00
69766;BME280;57039;48.014;21.384;2022-11-25T03:22:19;100823.59;;;2.62;100.00
69766;BME280;57039;48.014;21.384;2022-11-25T03:23:22;100825.31;;;2.62;100.00
69766;BME280;57039;48.014;21.384;2022-11-25T03:24:27;100824.47;;;2.61;100.00
69766;BME280;57039;48.014;21.384;2022-11-25T03:25:31;100821.88;;;2.61;100.00
69766;BME280;57039;48.014;21.384;2022-11-25T03:26:34;100822.72;;;2.63;100.00
69766;BME280;57039;48.014;21.384;2022-11-25T03:27:40;100827.94;;;2.60;100.00
69766;BME280;57039;48.014;21.384;2022-11-25T03:28:43;100833.09;;;2.63;100.00
69766;BME280;57039;48.014;21.384;2022-11-25T03:29:46;100825.31;;;2.63;100.00
69766;BME280;57039;48.014;21.384;2022-11-25T03:30:49;100826.09;;;2.67;100.00
69766;BME280;57039;48.014;21.384;2022-11-25T03:31:51;100833.03;;;2.66;100.00
69766;BME280;57039;48.014;21.384;2022-11-25T03:32:55;100824.41;;;2.64;100.00
69766;BME280;57039;48.014;21.384;2022-11-25T03:33:59;100833.09;;;2.63;100.00
69766;BME280;57039;48.014;21.384;2022-11-25T03:35:03;100831.34;;;2.64;100.00
69766;BME280;57039;48.014;21.384;2022-11-25T03:36:07;100835.69;;;2.62;100.00
69766;BME280;57039;48.014;21.384;2022-11-25T03:37:09;100836.59;;;2.59;100.00
69766;BME280;57039;48.014;21.384;2022-11-25T03:38:13;100829.66;;;2.60;100.00
69766;BME280;57039;48.014;21.384;2022-11-25T03:39:16;100828.84;;;2.58;100.00
69766;BME280;57039;48.014;21.384;2022-11-25T03:40:18;100830.63;;;2.54;100.00
69766;BME280;57039;48.014;21.384;2022-11-25T03:41:21;100832.34;;;2.54;100.00
69766;BME280;57039;48.014;21.384;2022-11-25T03:42:24;100833.19;;;2.56;100.00
69766;BME280;57039;48.014;21.384;2022-11-25T03:43:29;100832.34;;;2.54;100.00
69766;BME280;57039;48.014;21.384;2022-11-25T03:44:31;100840.16;;;2.52;100.00
69766;BME280;57039;48.014;21.384;2022-11-25T03:45:35;100838.47;;;2.49;100.00
69766;BME280;57039;48.014;21.384;2022-11-25T03:46:38;100841.03;;;2.53;100.00
69766;BME280;57039;48.014;21.384;2022-11-25T03:47:42;100840.13;;;2.54;100.00
69766;BME280;57039;48.014;21.384;2022-11-25T03:48:46;100838.47;;;2.49;100.00
69766;BME280;57039;48.014;21.384;2022-11-25T03:49:48;100843.66;;;2.49;100.00
69766;BME280;57039;48.014;21.384;2022-11-25T03:50:51;100845.41;;;2.47;100.00
69766;BME280;57039;48.014;21.384;2022-11-25T03:51:54;100844.50;;;2.50;100.00
69766;BME280;57039;48.014;21.384;2022-11-25T03:52:57;100845.34;;;2.50;100.00
69766;BME280;57039;48.014;21.384;2022-11-25T03:54:00;100844.47;;;2.53;100.00
69766;BME280;57039;48.014;21.384;2022-11-25T03:55:05;100846.34;;;2.43;100.00
69766;BME280;57039;48.014;21.384;2022-11-25T03:56:08;100842.88;;;2.44;100.00
69766;BME280;57039;48.014;21.384;2022-11-25T03:57:11;100849.78;;;2.44;100.00
69766;BME280;57039;48.014;21.384;2022-11-25T03:58:15;100845.50;;;2.43;100.00
69766;BME280;57039;48.014;21.384;2022-11-25T03:59:18;100847.16;;;2.47;100.00
69766;BME280;57039;48.014;21.384;2022-11-25T04:00:21;100851.44;;;2.49;100.00
69766;BME280;57039;48.014;21.384;2022-11-25T04:01:24;100848.00;;;2.49;100.00
69766;BME280;57039;48.014;21.384;2022-11-25T04:02:27;100853.13;;;2.50;100.00
69766;BME280;57039;48.014;21.384;2022-11-25T04:03:30;100853.97;;;2.51;100.00
69766;BME280;57039;48.014;21.384;2022-11-25T04:04:33;100856.59;;;2.49;100.00
69766;BME280;57039;48.014;21.384;2022-11-25T04:05:36;100851.38;;;2.51;100.00
69766;BME280;57039;48.014;21.384;2022-11-25T04:06:40;100852.28;;;2.50;100.00
69766;BME280;57039;48.014;21.384;2022-11-25T04:07:42;100853.13;;;2.52;100.00
69766;BME280;57039;48.014;21.384;2022-11-25T04:08:45;100852.22;;;2.53;100.00
69766;BME280;57039;48.014;21.384;2022-11-25T04:09:48;100864.28;;;2.54;100.00
69766;BME280;57039;48.014;21.384;2022-11-25T04:10:51;100859.09;;;2.56;100.00
69766;BME280;57039;48.014;21.384;2022-11-25T04:11:55;100866.81;;;2.57;100.00
69766;BME280;57039;48.014;21.384;2022-11-25T04:13:17;100860.00;;;2.53;100.00
69766;BME280;57039;48.014;21.384;2022-11-25T04:14:20;100865.22;;;2.51;100.00
69766;BME280;57039;48.014;21.384;2022-11-25T04:15:23;100866.00;;;2.55;100.00
69766;BME280;57039;48.014;21.384;2022-11-25T04:16:27;100849.72;;;2.48;100.00
69766;BME280;57039;48.014;21.384;2022-11-25T04:17:31;100866.75;;;2.62;100.00
69766;BME280;57039;48.014;21.384;2022-11-25T04:18:33;100876.28;;;2.61;100.00
69766;BME280;57039;48.014;21.384;2022-11-25T04:19:38;100879.88;;;2.53;100.00
69766;BME280;57039;48.014;21.384;2022-11-25T04:20:43;100880.72;;;2.53;100.00
69766;BME280;57039;48.014;21.384;2022-11-25T04:21:46;100880.72;;;2.53;100.00
69766;BME280;57039;48.014;21.384;2022-11-25T04:22:54;100877.28;;;2.53;100.00
69766;BME280;57039;48.014;21.384;2022-11-25T04:23:57;100880.72;;;2.53;100.00
69766;BME280;57039;48.014;21.384;2022-11-25T04:25:00;100885.00;;;2.56;100.00
69766;BME280;57039;48.014;21.384;2022-11-25T04:26:03;100870.50;;;2.45;100.00
69766;BME280;57039;48.014;21.384;2022-11-25T04:27:06;100883.34;;;2.51;100.00
69766;BME280;57039;48.014;21.384;2022-11-25T04:28:10;100891.13;;;2.50;100.00
69766;BME280;57039;48.014;21.384;2022-11-25T04:29:13;100881.59;;;2.52;100.00
69766;BME280;57039;48.014;21.384;2022-11-25T04:30:16;100892.81;;;2.53;100.00
69766;BME280;57039;48.014;21.384;2022-11-25T04:31:19;100884.16;;;2.54;100.00
69766;BME280;57039;48.014;21.384;2022-11-25T04:32:22;100893.66;;;2.53;100.00
69766;BME280;57039;48.014;21.384;2022-11-25T04:33:25;100900.59;;;2.53;100.00
69766;BME280;57039;48.014;21.384;2022-11-25T04:34:28;100894.56;;;2.52;100.00
69766;BME280;57039;48.014;21.384;2022-11-25T04:35:32;100890.22;;;2.51;100.00
69766;BME280;57039;48.014;21.384;2022-11-25T04:36:35;100896.34;;;2.48;100.00
69766;BME280;57039;48.014;21.384;2022-11-25T04:37:38;100888.56;;;2.47;100.00
69766;BME280;57039;48.014;21.384;2022-11-25T04:38:42;100892.91;;;2.46;100.00
69766;BME280;57039;48.014;21.384;2022-11-25T04:39:45;100899.78;;;2.47;100.00
69766;BME280;57039;48.014;21.384;2022-11-25T04:40:49;100897.19;;;2.47;100.00
69766;BME280;57039;48.014;21.384;2022-11-25T04:41:52;100896.34;;;2.48;100.00
69766;BME280;57039;48.014;21.384;2022-11-25T04:43:15;100892.91;;;2.46;100.00
69766;BME280;57039;48.014;21.384;2022-11-25T04:44:18;100897.25;;;2.46;100.00
69766;BME280;57039;48.014;21.384;2022-11-25T04:45:23;100895.53;;;2.43;100.00
69766;BME280;57039;48.014;21.384;2022-11-25T04:46:32;100896.50;;;2.36;100.00
69766;BME280;57039;48.014;21.384;2022-11-25T04:47:36;100896.53;;;2.33;100.00
69766;BME280;57039;48.014;21.384;2022-11-25T04:48:39;100892.25;;;2.32;100.00
69766;BME280;57039;48.014;21.384;2022-11-25T04:49:42;100900.06;;;2.29;100.00
69766;BME280;57039;48.014;21.384;2022-11-25T04:50:46;100902.69;;;2.27;100.00
69766;BME280;57039;48.014;21.384;2022-11-25T04:51:48;100904.34;;;2.32;100.00
69766;BME280;57039;48.014;21.384;2022-11-25T04:52:51;100904.31;;;2.33;100.00
69766;BME280;57039;48.014;21.384;2022-11-25T04:53:57;100906.91;;;2.33;100.00
69766;BME280;57039;48.014;21.384;2022-11-25T04:55:02;100912.91;;;2.35;100.00
69766;BME280;57039;48.014;21.384;2022-11-25T04:56:05;100916.34;;;2.36;100.00
69766;BME280;57039;48.014;21.384;2022-11-25T04:57:12;100912.03;;;2.36;100.00
69766;BME280;57039;48.014;21.384;2022-11-25T04:58:17;100894.03;;;2.28;100.00
69766;BME280;57039;48.014;21.384;2022-11-25T04:59:41;100916.31;;;2.39;100.00
69766;BME280;57039;48.014;21.384;2022-11-25T05:00:44;100914.56;;;2.39;100.00
69766;BME280;57039;48.014;21.384;2022-11-25T05:01:47;100911.97;;;2.39;100.00
69766;BME280;57039;48.014;21.384;2022-11-25T05:02:51;100914.56;;;2.41;100.00
69766;BME280;57039;48.014;21.384;2022-11-25T05:03:54;100914.63;;;2.38;100.00
69766;BME280;57039;48.014;21.384;2022-11-25T05:04:59;100917.19;;;2.38;100.00
69766;BME280;57039;48.014;21.384;2022-11-25T05:06:07;100924.13;;;2.36;100.00
69766;BME280;57039;48.014;21.384;2022-11-25T05:07:12;100920.69;;;2.37;100.00
69766;BME280;57039;48.014;21.384;2022-11-25T05:08:15;100918.09;;;2.37;100.00
69766;BME280;57039;48.014;21.384;2022-11-25T05:09:18;100924.13;;;2.37;100.00
69766;BME280;57039;48.014;21.384;2022-11-25T05:10:22;100921.53;;;2.36;100.00
69766;BME280;57039;48.014;21.384;2022-11-25T05:11:25;100926.72;;;2.36;100.00
69766;BME280;57039;48.014;21.384;2022-11-25T05:12:28;100920.69;;;2.37;100.00
69766;BME280;57039;48.014;21.384;2022-11-25T05:13:31;100923.19;;;2.43;100.00
69766;BME280;57039;48.014;21.384;2022-11-25T05:14:33;100922.31;;;2.42;100.00
69766;BME280;57039;48.014;21.384;2022-11-25T05:15:37;100928.37;;;2.41;100.00
69766;BME280;57039;48.014;21.384;2022-11-25T05:16:41;100929.22;;;2.42;100.00
69766;BME280;57039;48.014;21.384;2022-11-25T05:17:43;100928.34;;;2.43;100.00
69766;BME280;57039;48.014;21.384;2022-11-25T05:18:47;100930.91;;;2.44;100.00
69766;BME280;57039;48.014;21.384;2022-11-25T05:19:51;100914.56;;;2.39;100.00
69766;BME280;57039;48.014;21.384;2022-11-25T05:20:54;100936.06;;;2.46;100.00
69766;BME280;57039;48.014;21.384;2022-11-25T05:21:57;100932.66;;;2.44;100.00
69766;BME280;57039;48.014;21.384;2022-11-25T05:23:00;100927.50;;;2.42;100.00
69766;BME280;57039;48.014;21.384;2022-11-25T05:24:04;100932.69;;;2.41;100.00
69766;BME280;57039;48.014;21.384;2022-11-25T05:25:07;100936.13;;;2.41;100.00
69766;BME280;57039;48.014;21.384;2022-11-25T05:26:12;100940.47;;;2.41;100.00
69766;BME280;57039;48.014;21.384;2022-11-25T05:27:16;100928.37;;;2.41;100.00
69766;BME280;57039;48.014;21.384;2022-11-25T05:28:19;100932.69;;;2.42;100.00
69766;BME280;57039;48.014;21.384;2022-11-25T05:29:22;100939.56;;;2.43;100.00
69766;BME280;57039;48.014;21.384;2022-11-25T05:30:25;100936.13;;;2.43;100.00
69766;BME280;57039;48.014;21.384;2022-11-25T05:31:29;100935.28;;;2.41;100.00
69766;BME280;57039;48.014;21.384;2022-11-25T05:32:33;100940.41;;;2.44;100.00
69766;BME280;57039;48.014;21.384;2022-11-25T05:33:37;100937.88;;;2.42;100.00
69766;BME280;57039;48.014;21.384;2022-11-25T05:34:40;100936.94;;;2.45;100.00
69766;BME280;57039;48.014;21.384;2022-11-25T05:35:43;100943.84;;;2.46;100.00
69766;BME280;57039;48.014;21.384;2022-11-25T05:36:46;100939.53;;;2.45;100.00
69766;BME280;57039;48.014;21.384;2022-11-25T05:37:49;100940.44;;;2.42;100.00
69766;BME280;57039;48.014;21.384;2022-11-25T05:38:55;100947.34;;;2.43;100.00
69766;BME280;57039;48.014;21.384;2022-11-25T05:39:58;100949.94;;;2.42;100.00
69766;BME280;57039;48.014;21.384;2022-11-25T05:41:05;100954.25;;;2.41;100.00
69766;BME280;57039;48.014;21.384;2022-11-25T05:42:08;100955.09;;;2.42;100.00